sensor_id;sensor_type;location;lat;lon;timestamp;P1;durP1;ratioP1;P2;durP2;ratioP2
75932;SDS011;64803;52.356;5.310;2023-07-20T00:01:15;2.20;;;0.85;;
75932;SDS011;64803;52.356;5.310;2023-07-20T00:03:41;4.90;;;1.20;;
75932;SDS011;64803;52.356;5.310;2023-07-20T00:06:07;4.55;;;1.20;;
75932;SDS011;64803;52.356;5.310;2023-07-20T00:08:33;5.07;;;1.48;;
75932;SDS011;64803;52.356;5.310;2023-07-20T00:10:59;4.90;;;1.40;;
75932;SDS011;64803;52.356;5.310;2023-07-20T00:13:26;3.42;;;1.30;;
75932;SDS011;64803;52.356;5.310;2023-07-20T00:15:52;3.30;;;1.10;;
75932;SDS011;64803;52.356;5.310;2023-07-20T00:18:18;4.22;;;1.50;;
75932;SDS011;64803;52.356;5.310;2023-07-20T00:20:47;4.40;;;1.40;;
75932;SDS011;64803;52.356;5.310;2023-07-20T00:23:13;5.13;;;1.50;;
75932;SDS011;64803;52.356;5.310;2023-07-20T00:25:40;4.78;;;1.63;;
75932;SDS011;64803;52.356;5.310;2023-07-20T00:28:06;4.32;;;1.60;;
75932;SDS011;64803;52.356;5.310;2023-07-20T00:30:32;4.15;;;1.52;;
75932;SDS011;64803;52.356;5.310;2023-07-20T00:32:58;4.60;;;1.90;;
75932;SDS011;64803;52.356;5.310;2023-07-20T00:35:24;4.90;;;1.90;;
75932;SDS011;64803;52.356;5.310;2023-07-20T00:37:50;6.70;;;1.92;;
75932;SDS011;64803;52.356;5.310;2023-07-20T00:40:16;6.43;;;2.10;;
75932;SDS011;64803;52.356;5.310;2023-07-20T00:42:43;4.75;;;1.90;;
75932;SDS011;64803;52.356;5.310;2023-07-20T00:45:09;6.55;;;2.00;;
75932;SDS011;64803;52.356;5.310;2023-07-20T00:47:35;5.13;;;2.22;;
75932;SDS011;64803;52.356;5.310;2023-07-20T00:50:02;7.10;;;2.10;;
75932;SDS011;64803;52.356;5.310;2023-07-20T00:52:31;8.65;;;2.22;;
75932;SDS011;64803;52.356;5.310;2023-07-20T00:54:58;5.53;;;2.35;;
75932;SDS011;64803;52.356;5.310;2023-07-20T00:57:24;5.15;;;2.10;;
75932;SDS011;64803;52.356;5.310;2023-07-20T00:59:51;6.75;;;2.38;;
75932;SDS011;64803;52.356;5.310;2023-07-20T01:02:18;5.90;;;2.03;;
75932;SDS011;64803;52.356;5.310;2023-07-20T01:04:44;8.40;;;2.67;;
75932;SDS011;64803;52.356;5.310;2023-07-20T01:07:23;5.90;;;1.98;;
75932;SDS011;64803;52.356;5.310;2023-07-20T01:12:35;5.03;;;2.00;;
75932;SDS011;64803;52.356;5.310;2023-07-20T01:15:10;5.60;;;1.73;;
75932;SDS011;64803;52.356;5.310;2023-07-20T01:17:36;5.22;;;2.15;;
75932;SDS011;64803;52.356;5.310;2023-07-20T01:20:02;6.97;;;2.33;;
75932;SDS011;64803;52.356;5.310;2023-07-20T01:22:37;5.30;;;2.17;;
75932;SDS011;64803;52.356;5.310;2023-07-20T01:33:53;5.72;;;2.30;;
75932;SDS011;64803;52.356;5.310;2023-07-20T01:36:22;4.90;;;2.33;;
75932;SDS011;64803;52.356;5.310;2023-07-20T01:38:51;7.90;;;2.70;;
75932;SDS011;64803;52.356;5.310;2023-07-20T01:43:44;8.55;;;2.30;;
75932;SDS011;64803;52.356;5.310;2023-07-20T01:46:10;6.85;;;2.33;;
75932;SDS011;64803;52.356;5.310;2023-07-20T01:48:36;5.70;;;2.47;;
75932;SDS011;64803;52.356;5.310;2023-07-20T01:51:02;10.88;;;2.80;;
75932;SDS011;64803;52.356;5.310;2023-07-20T01:53:28;7.28;;;2.65;;
75932;SDS011;64803;52.356;5.310;2023-07-20T01:55:54;5.25;;;2.38;;
75932;SDS011;64803;52.356;5.310;2023-07-20T01:58:20;6.28;;;2.42;;
75932;SDS011;64803;52.356;5.310;2023-07-20T02:00:46;8.02;;;2.50;;
75932;SDS011;64803;52.356;5.310;2023-07-20T02:03:12;7.32;;;2.45;;
75932;SDS011;64803;52.356;5.310;2023-07-20T02:05:39;6.63;;;2.50;;
75932;SDS011;64803;52.356;5.310;2023-07-20T02:08:05;7.40;;;2.40;;
75932;SDS011;64803;52.356;5.310;2023-07-20T02:10:31;8.02;;;2.72;;
75932;SDS011;64803;52.356;5.310;2023-07-20T02:12:57;6.97;;;2.83;;
75932;SDS011;64803;52.356;5.310;2023-07-20T02:15:23;7.80;;;2.55;;
75932;SDS011;64803;52.356;5.310;2023-07-20T02:17:51;4.68;;;2.00;;
75932;SDS011;64803;52.356;5.310;2023-07-20T02:20:17;5.88;;;2.28;;
75932;SDS011;64803;52.356;5.310;2023-07-20T02:22:43;4.47;;;2.15;;
75932;SDS011;64803;52.356;5.310;2023-07-20T02:25:09;6.53;;;2.40;;
75932;SDS011;64803;52.356;5.310;2023-07-20T02:27:35;5.22;;;2.17;;
75932;SDS011;64803;52.356;5.310;2023-07-20T02:30:03;5.32;;;2.08;;
75932;SDS011;64803;52.356;5.310;2023-07-20T02:32:30;6.68;;;1.77;;
75932;SDS011;64803;52.356;5.310;2023-07-20T02:37:24;4.20;;;1.45;;
75932;SDS011;64803;52.356;5.310;2023-07-20T02:39:50;4.82;;;1.42;;
75932;SDS011;64803;52.356;5.310;2023-07-20T02:42:16;3.35;;;1.20;;
75932;SDS011;64803;52.356;5.310;2023-07-20T02:44:43;4.68;;;1.30;;
75932;SDS011;64803;52.356;5.310;2023-07-20T02:47:09;4.60;;;1.30;;
75932;SDS011;64803;52.356;5.310;2023-07-20T02:49:35;7.40;;;1.20;;
75932;SDS011;64803;52.356;5.310;2023-07-20T02:52:01;4.43;;;1.30;;
75932;SDS011;64803;52.356;5.310;2023-07-20T02:54:28;3.13;;;1.00;;
75932;SDS011;64803;52.356;5.310;2023-07-20T02:56:56;5.47;;;1.20;;
75932;SDS011;64803;52.356;5.310;2023-07-20T02:59:22;4.28;;;1.30;;
75932;SDS011;64803;52.356;5.310;2023-07-20T03:01:48;5.43;;;1.00;;
75932;SDS011;64803;52.356;5.310;2023-07-20T03:04:14;7.45;;;1.13;;
75932;SDS011;64803;52.356;5.310;2023-07-20T03:06:41;4.07;;;1.10;;
75932;SDS011;64803;52.356;5.310;2023-07-20T03:09:08;3.83;;;1.02;;
75932;SDS011;64803;52.356;5.310;2023-07-20T03:11:35;3.85;;;1.20;;
75932;SDS011;64803;52.356;5.310;2023-07-20T03:14:01;4.47;;;1.27;;
75932;SDS011;64803;52.356;5.310;2023-07-20T03:16:27;10.02;;;2.00;;
75932;SDS011;64803;52.356;5.310;2023-07-20T03:18:53;5.97;;;1.85;;
75932;SDS011;64803;52.356;5.310;2023-07-20T03:21:19;6.72;;;1.77;;
75932;SDS011;64803;52.356;5.310;2023-07-20T03:23:46;4.28;;;1.50;;
75932;SDS011;64803;52.356;5.310;2023-07-20T03:26:11;5.63;;;1.85;;
75932;SDS011;64803;52.356;5.310;2023-07-20T03:28:38;10.57;;;2.00;;
75932;SDS011;64803;52.356;5.310;2023-07-20T03:31:04;7.75;;;2.08;;
75932;SDS011;64803;52.356;5.310;2023-07-20T03:33:33;7.78;;;2.00;;
75932;SDS011;64803;52.356;5.310;2023-07-20T03:36:00;7.38;;;2.22;;
75932;SDS011;64803;52.356;5.310;2023-07-20T03:38:26;4.32;;;1.67;;
75932;SDS011;64803;52.356;5.310;2023-07-20T03:40:55;8.18;;;1.85;;
75932;SDS011;64803;52.356;5.310;2023-07-20T03:43:26;7.53;;;1.95;;
75932;SDS011;64803;52.356;5.310;2023-07-20T03:45:53;8.43;;;2.20;;
75932;SDS011;64803;52.356;5.310;2023-07-20T03:48:21;6.50;;;2.40;;
75932;SDS011;64803;52.356;5.310;2023-07-20T03:50:49;5.70;;;2.10;;
75932;SDS011;64803;52.356;5.310;2023-07-20T03:53:17;7.72;;;2.40;;
75932;SDS011;64803;52.356;5.310;2023-07-20T03:55:46;7.10;;;2.20;;
75932;SDS011;64803;52.356;5.310;2023-07-20T03:58:14;5.72;;;1.90;;
75932;SDS011;64803;52.356;5.310;2023-07-20T04:00:43;6.22;;;1.55;;
75932;SDS011;64803;52.356;5.310;2023-07-20T04:03:10;3.88;;;1.55;;
75932;SDS011;64803;52.356;5.310;2023-07-20T04:05:36;5.90;;;1.80;;
75932;SDS011;64803;52.356;5.310;2023-07-20T04:08:02;5.97;;;2.20;;
75932;SDS011;64803;52.356;5.310;2023-07-20T04:10:28;5.93;;;1.92;;
75932;SDS011;64803;52.356;5.310;2023-07-20T04:12:55;6.35;;;2.15;;
75932;SDS011;64803;52.356;5.310;2023-07-20T04:15:21;4.35;;;1.83;;
75932;SDS011;64803;52.356;5.310;2023-07-20T04:17:47;8.43;;;2.40;;
75932;SDS011;64803;52.356;5.310;2023-07-20T04:20:13;6.10;;;2.20;;
75932;SDS011;64803;52.356;5.310;2023-07-20T04:22:42;8.68;;;2.72;;
75932;SDS011;64803;52.356;5.310;2023-07-20T04:25:11;7.10;;;2.00;;
75932;SDS011;64803;52.356;5.310;2023-07-20T04:27:37;11.18;;;2.13;;
75932;SDS011;64803;52.356;5.310;2023-07-20T04:30:03;5.60;;;2.03;;
75932;SDS011;64803;52.356;5.310;2023-07-20T04:32:29;7.72;;;2.17;;
75932;SDS011;64803;52.356;5.310;2023-07-20T04:35:00;9.48;;;2.33;;
75932;SDS011;64803;52.356;5.310;2023-07-20T04:37:27;8.43;;;1.92;;
75932;SDS011;64803;52.356;5.310;2023-07-20T04:39:53;4.88;;;1.90;;
75932;SDS011;64803;52.356;5.310;2023-07-20T04:42:19;6.05;;;2.22;;
75932;SDS011;64803;52.356;5.310;2023-07-20T04:44:46;5.40;;;2.20;;
75932;SDS011;64803;52.356;5.310;2023-07-20T04:47:12;16.92;;;2.85;;
75932;SDS011;64803;52.356;5.310;2023-07-20T04:49:38;10.07;;;2.63;;
75932;SDS011;64803;52.356;5.310;2023-07-20T04:52:05;6.63;;;2.78;;
75932;SDS011;64803;52.356;5.310;2023-07-20T04:54:31;6.07;;;2.40;;
75932;SDS011;64803;52.356;5.310;2023-07-20T04:56:58;8.43;;;2.40;;
75932;SDS011;64803;52.356;5.310;2023-07-20T04:59:24;9.38;;;2.53;;
75932;SDS011;64803;52.356;5.310;2023-07-20T05:01:50;7.45;;;2.30;;
75932;SDS011;64803;52.356;5.310;2023-07-20T05:04:17;8.60;;;3.03;;
75932;SDS011;64803;52.356;5.310;2023-07-20T05:06:43;6.43;;;2.88;;
75932;SDS011;64803;52.356;5.310;2023-07-20T05:09:09;6.72;;;2.33;;
75932;SDS011;64803;52.356;5.310;2023-07-20T05:11:35;5.93;;;2.60;;
75932;SDS011;64803;52.356;5.310;2023-07-20T05:14:01;6.40;;;2.58;;
75932;SDS011;64803;52.356;5.310;2023-07-20T05:16:28;10.23;;;2.85;;
75932;SDS011;64803;52.356;5.310;2023-07-20T05:18:59;7.50;;;2.95;;
75932;SDS011;64803;52.356;5.310;2023-07-20T05:21:25;10.60;;;2.90;;
75932;SDS011;64803;52.356;5.310;2023-07-20T05:23:52;7.05;;;2.53;;
75932;SDS011;64803;52.356;5.310;2023-07-20T05:26:18;7.22;;;2.78;;
75932;SDS011;64803;52.356;5.310;2023-07-20T05:28:44;6.68;;;2.75;;
75932;SDS011;64803;52.356;5.310;2023-07-20T05:31:10;5.35;;;2.40;;
75932;SDS011;64803;52.356;5.310;2023-07-20T05:33:36;7.70;;;2.78;;
75932;SDS011;64803;52.356;5.310;2023-07-20T05:36:02;9.43;;;2.83;;
75932;SDS011;64803;52.356;5.310;2023-07-20T05:38:28;9.82;;;2.95;;
75932;SDS011;64803;52.356;5.310;2023-07-20T05:40:58;7.80;;;2.50;;
75932;SDS011;64803;52.356;5.310;2023-07-20T05:43:25;8.35;;;2.58;;
75932;SDS011;64803;52.356;5.310;2023-07-20T05:45:51;9.98;;;2.90;;
75932;SDS011;64803;52.356;5.310;2023-07-20T05:48:17;6.55;;;2.47;;
75932;SDS011;64803;52.356;5.310;2023-07-20T05:50:43;8.13;;;3.17;;
75932;SDS011;64803;52.356;5.310;2023-07-20T05:53:09;7.30;;;2.45;;
75932;SDS011;64803;52.356;5.310;2023-07-20T05:55:35;4.40;;;1.73;;
75932;SDS011;64803;52.356;5.310;2023-07-20T05:58:01;5.50;;;1.95;;
75932;SDS011;64803;52.356;5.310;2023-07-20T06:00:27;5.70;;;1.27;;
75932;SDS011;64803;52.356;5.310;2023-07-20T06:02:54;4.63;;;1.40;;
75932;SDS011;64803;52.356;5.310;2023-07-20T06:05:23;3.03;;;1.23;;
75932;SDS011;64803;52.356;5.310;2023-07-20T06:07:50;3.83;;;1.40;;
75932;SDS011;64803;52.356;5.310;2023-07-20T06:10:16;4.45;;;1.40;;
75932;SDS011;64803;52.356;5.310;2023-07-20T06:12:42;3.08;;;1.00;;
75932;SDS011;64803;52.356;5.310;2023-07-20T06:15:24;2.92;;;0.90;;
75932;SDS011;64803;52.356;5.310;2023-07-20T06:18:01;2.80;;;1.08;;
75932;SDS011;64803;52.356;5.310;2023-07-20T06:20:27;2.60;;;1.20;;
75932;SDS011;64803;52.356;5.310;2023-07-20T06:22:53;4.13;;;1.10;;
75932;SDS011;64803;52.356;5.310;2023-07-20T06:25:19;3.67;;;1.10;;
75932;SDS011;64803;52.356;5.310;2023-07-20T06:27:46;4.05;;;1.10;;
75932;SDS011;64803;52.356;5.310;2023-07-20T06:30:14;5.55;;;1.00;;
75932;SDS011;64803;52.356;5.310;2023-07-20T06:32:41;4.20;;;1.05;;
75932;SDS011;64803;52.356;5.310;2023-07-20T06:35:07;2.45;;;1.00;;
75932;SDS011;64803;52.356;5.310;2023-07-20T06:37:34;3.53;;;1.02;;
75932;SDS011;64803;52.356;5.310;2023-07-20T06:40:04;2.60;;;0.75;;
75932;SDS011;64803;52.356;5.310;2023-07-20T06:42:30;2.22;;;0.80;;
75932;SDS011;64803;52.356;5.310;2023-07-20T06:44:57;2.92;;;0.90;;
75932;SDS011;64803;52.356;5.310;2023-07-20T06:47:23;2.53;;;0.80;;
75932;SDS011;64803;52.356;5.310;2023-07-20T06:49:49;3.97;;;0.90;;
75932;SDS011;64803;52.356;5.310;2023-07-20T06:52:15;2.95;;;0.88;;
75932;SDS011;64803;52.356;5.310;2023-07-20T06:54:41;2.72;;;0.80;;
75932;SDS011;64803;52.356;5.310;2023-07-20T06:57:07;1.42;;;0.68;;
75932;SDS011;64803;52.356;5.310;2023-07-20T06:59:33;1.85;;;0.80;;
75932;SDS011;64803;52.356;5.310;2023-07-20T07:01:59;3.85;;;0.80;;
75932;SDS011;64803;52.356;5.310;2023-07-20T07:04:25;5.20;;;0.90;;
75932;SDS011;64803;52.356;5.310;2023-07-20T07:06:51;2.17;;;0.82;;
75932;SDS011;64803;52.356;5.310;2023-07-20T07:09:17;2.08;;;0.85;;
75932;SDS011;64803;52.356;5.310;2023-07-20T07:11:44;2.45;;;0.70;;
75932;SDS011;64803;52.356;5.310;2023-07-20T07:14:12;3.45;;;0.60;;
75932;SDS011;64803;52.356;5.310;2023-07-20T07:16:38;2.20;;;0.63;;
75932;SDS011;64803;52.356;5.310;2023-07-20T07:19:04;1.45;;;0.50;;
75932;SDS011;64803;52.356;5.310;2023-07-20T07:21:31;1.38;;;0.70;;
75932;SDS011;64803;52.356;5.310;2023-07-20T07:23:57;1.35;;;0.60;;
75932;SDS011;64803;52.356;5.310;2023-07-20T07:26:25;3.42;;;0.85;;
75932;SDS011;64803;52.356;5.310;2023-07-20T07:28:51;1.55;;;0.50;;
75932;SDS011;64803;52.356;5.310;2023-07-20T07:31:17;1.45;;;0.50;;
75932;SDS011;64803;52.356;5.310;2023-07-20T07:33:43;4.30;;;0.90;;
75932;SDS011;64803;52.356;5.310;2023-07-20T07:36:09;4.80;;;0.60;;
75932;SDS011;64803;52.356;5.310;2023-07-20T07:38:35;1.95;;;0.63;;
75932;SDS011;64803;52.356;5.310;2023-07-20T07:41:01;0.45;;;0.40;;
75932;SDS011;64803;52.356;5.310;2023-07-20T07:43:27;3.50;;;0.60;;
75932;SDS011;64803;52.356;5.310;2023-07-20T07:45:53;2.40;;;1.05;;
75932;SDS011;64803;52.356;5.310;2023-07-20T07:48:20;3.00;;;0.47;;
75932;SDS011;64803;52.356;5.310;2023-07-20T07:50:47;1.65;;;0.60;;
75932;SDS011;64803;52.356;5.310;2023-07-20T07:53:13;0.40;;;0.30;;
75932;SDS011;64803;52.356;5.310;2023-07-20T07:55:39;2.30;;;0.47;;
75932;SDS011;64803;52.356;5.310;2023-07-20T07:58:05;2.10;;;0.60;;
75932;SDS011;64803;52.356;5.310;2023-07-20T08:00:31;1.25;;;0.50;;
75932;SDS011;64803;52.356;5.310;2023-07-20T08:02:57;1.52;;;0.60;;
75932;SDS011;64803;52.356;5.310;2023-07-20T08:05:23;2.05;;;0.40;;
75932;SDS011;64803;52.356;5.310;2023-07-20T08:07:49;3.45;;;0.57;;
75932;SDS011;64803;52.356;5.310;2023-07-20T08:10:15;1.92;;;0.90;;
75932;SDS011;64803;52.356;5.310;2023-07-20T08:12:41;0.50;;;0.40;;
75932;SDS011;64803;52.356;5.310;2023-07-20T08:15:10;1.65;;;0.50;;
75932;SDS011;64803;52.356;5.310;2023-07-20T08:17:37;1.55;;;0.30;;
75932;SDS011;64803;52.356;5.310;2023-07-20T08:20:03;1.00;;;0.40;;
75932;SDS011;64803;52.356;5.310;2023-07-20T08:22:29;1.25;;;0.60;;
75932;SDS011;64803;52.356;5.310;2023-07-20T08:24:55;1.63;;;0.52;;
75932;SDS011;64803;52.356;5.310;2023-07-20T08:27:21;3.45;;;0.40;;
75932;SDS011;64803;52.356;5.310;2023-07-20T08:29:47;2.80;;;0.70;;
75932;SDS011;64803;52.356;5.310;2023-07-20T08:32:13;1.73;;;0.60;;
75932;SDS011;64803;52.356;5.310;2023-07-20T08:34:41;1.00;;;0.50;;
75932;SDS011;64803;52.356;5.310;2023-07-20T08:37:07;1.40;;;0.68;;
75932;SDS011;64803;52.356;5.310;2023-07-20T08:39:35;2.63;;;0.75;;
75932;SDS011;64803;52.356;5.310;2023-07-20T08:42:01;1.13;;;0.50;;
75932;SDS011;64803;52.356;5.310;2023-07-20T08:44:35;1.52;;;0.68;;
75932;SDS011;64803;52.356;5.310;2023-07-20T08:47:03;0.98;;;0.50;;
75932;SDS011;64803;52.356;5.310;2023-07-20T08:49:31;1.88;;;0.55;;
75932;SDS011;64803;52.356;5.310;2023-07-20T08:51:58;3.08;;;0.50;;
75932;SDS011;64803;52.356;5.310;2023-07-20T08:54:26;1.95;;;0.57;;
75932;SDS011;64803;52.356;5.310;2023-07-20T08:56:56;2.03;;;0.60;;
75932;SDS011;64803;52.356;5.310;2023-07-20T08:59:23;4.75;;;0.60;;
75932;SDS011;64803;52.356;5.310;2023-07-20T09:01:51;1.45;;;0.50;;
75932;SDS011;64803;52.356;5.310;2023-07-20T09:04:19;1.85;;;0.60;;
75932;SDS011;64803;52.356;5.310;2023-07-20T09:06:46;1.25;;;0.60;;
75932;SDS011;64803;52.356;5.310;2023-07-20T09:09:13;3.00;;;0.45;;
75932;SDS011;64803;52.356;5.310;2023-07-20T09:11:40;1.42;;;0.60;;
75932;SDS011;64803;52.356;5.310;2023-07-20T09:14:07;2.90;;;0.60;;
75932;SDS011;64803;52.356;5.310;2023-07-20T09:19:16;2.35;;;0.60;;
75932;SDS011;64803;52.356;5.310;2023-07-20T09:21:49;1.40;;;0.50;;
75932;SDS011;64803;52.356;5.310;2023-07-20T09:24:17;1.35;;;0.50;;
75932;SDS011;64803;52.356;5.310;2023-07-20T09:26:44;2.38;;;0.50;;
75932;SDS011;64803;52.356;5.310;2023-07-20T09:29:14;1.65;;;0.55;;
75932;SDS011;64803;52.356;5.310;2023-07-20T09:31:44;2.22;;;0.55;;
75932;SDS011;64803;52.356;5.310;2023-07-20T09:34:24;1.38;;;0.50;;
75932;SDS011;64803;52.356;5.310;2023-07-20T09:36:50;3.60;;;0.70;;
75932;SDS011;64803;52.356;5.310;2023-07-20T09:39:16;1.42;;;0.60;;
75932;SDS011;64803;52.356;5.310;2023-07-20T09:41:43;3.65;;;0.60;;
75932;SDS011;64803;52.356;5.310;2023-07-20T09:44:10;1.67;;;0.60;;
75932;SDS011;64803;52.356;5.310;2023-07-20T09:46:46;2.90;;;0.68;;
75932;SDS011;64803;52.356;5.310;2023-07-20T09:49:19;1.05;;;0.55;;
75932;SDS011;64803;52.356;5.310;2023-07-20T09:51:45;2.15;;;0.70;;
75932;SDS011;64803;52.356;5.310;2023-07-20T09:54:12;2.28;;;0.47;;
75932;SDS011;64803;52.356;5.310;2023-07-20T09:56:40;1.45;;;0.80;;
75932;SDS011;64803;52.356;5.310;2023-07-20T09:59:07;1.50;;;0.55;;
75932;SDS011;64803;52.356;5.310;2023-07-20T10:01:34;3.65;;;0.80;;
75932;SDS011;64803;52.356;5.310;2023-07-20T10:04:02;2.72;;;0.50;;
75932;SDS011;64803;52.356;5.310;2023-07-20T10:06:29;1.45;;;0.60;;
75932;SDS011;64803;52.356;5.310;2023-07-20T10:09:00;2.40;;;0.60;;
75932;SDS011;64803;52.356;5.310;2023-07-20T10:11:35;6.03;;;0.50;;
75932;SDS011;64803;52.356;5.310;2023-07-20T10:14:04;3.75;;;0.85;;
75932;SDS011;64803;52.356;5.310;2023-07-20T10:16:38;0.80;;;0.22;;
75932;SDS011;64803;52.356;5.310;2023-07-20T10:19:14;1.58;;;0.40;;
75932;SDS011;64803;52.356;5.310;2023-07-20T10:21:51;0.98;;;0.40;;
75932;SDS011;64803;52.356;5.310;2023-07-20T10:24:29;3.00;;;0.57;;
75932;SDS011;64803;52.356;5.310;2023-07-20T10:26:57;2.35;;;0.68;;
75932;SDS011;64803;52.356;5.310;2023-07-20T10:29:23;1.33;;;0.40;;
75932;SDS011;64803;52.356;5.310;2023-07-20T10:31:53;1.35;;;0.40;;
75932;SDS011;64803;52.356;5.310;2023-07-20T10:34:21;1.63;;;0.50;;
75932;SDS011;64803;52.356;5.310;2023-07-20T10:39:24;0.88;;;0.50;;
75932;SDS011;64803;52.356;5.310;2023-07-20T10:41:59;0.80;;;0.40;;
75932;SDS011;64803;52.356;5.310;2023-07-20T10:44:32;1.95;;;0.82;;
75932;SDS011;64803;52.356;5.310;2023-07-20T10:47:01;2.15;;;0.38;;
75932;SDS011;64803;52.356;5.310;2023-07-20T10:49:34;2.25;;;0.60;;
75932;SDS011;64803;52.356;5.310;2023-07-20T10:52:04;0.90;;;0.40;;
75932;SDS011;64803;52.356;5.310;2023-07-20T10:56:57;1.35;;;0.52;;
75932;SDS011;64803;52.356;5.310;2023-07-20T10:59:45;1.95;;;0.60;;
75932;SDS011;64803;52.356;5.310;2023-07-20T11:02:12;2.38;;;0.70;;
75932;SDS011;64803;52.356;5.310;2023-07-20T11:04:39;2.42;;;0.60;;
75932;SDS011;64803;52.356;5.310;2023-07-20T11:07:05;2.58;;;0.75;;
75932;SDS011;64803;52.356;5.310;2023-07-20T11:09:35;3.28;;;0.68;;
75932;SDS011;64803;52.356;5.310;2023-07-20T11:14:41;2.55;;;0.70;;
75932;SDS011;64803;52.356;5.310;2023-07-20T11:17:12;2.55;;;0.90;;
75932;SDS011;64803;52.356;5.310;2023-07-20T11:19:39;2.13;;;0.55;;
75932;SDS011;64803;52.356;5.310;2023-07-20T11:22:06;3.47;;;0.90;;
75932;SDS011;64803;52.356;5.310;2023-07-20T11:24:33;1.95;;;0.80;;
75932;SDS011;64803;52.356;5.310;2023-07-20T11:26:59;2.83;;;0.80;;
75932;SDS011;64803;52.356;5.310;2023-07-20T11:31:53;4.70;;;0.82;;
75932;SDS011;64803;52.356;5.310;2023-07-20T11:34:21;1.70;;;0.63;;
75932;SDS011;64803;52.356;5.310;2023-07-20T11:36:48;2.25;;;0.73;;
75932;SDS011;64803;52.356;5.310;2023-07-20T11:39:16;4.18;;;1.17;;
75932;SDS011;64803;52.356;5.310;2023-07-20T11:41:50;3.60;;;0.90;;
75932;SDS011;64803;52.356;5.310;2023-07-20T11:44:26;3.83;;;0.98;;
75932;SDS011;64803;52.356;5.310;2023-07-20T11:47:06;2.20;;;0.68;;
75932;SDS011;64803;52.356;5.310;2023-07-20T11:52:06;2.72;;;0.80;;
75932;SDS011;64803;52.356;5.310;2023-07-20T11:54:34;2.63;;;0.90;;
75932;SDS011;64803;52.356;5.310;2023-07-20T11:57:01;3.42;;;0.90;;
75932;SDS011;64803;52.356;5.310;2023-07-20T11:59:27;4.93;;;1.20;;
75932;SDS011;64803;52.356;5.310;2023-07-20T12:01:53;2.63;;;0.80;;
75932;SDS011;64803;52.356;5.310;2023-07-20T12:04:22;8.77;;;1.05;;
75932;SDS011;64803;52.356;5.310;2023-07-20T12:06:48;3.03;;;0.98;;
75932;SDS011;64803;52.356;5.310;2023-07-20T12:09:15;1.88;;;0.73;;
75932;SDS011;64803;52.356;5.310;2023-07-20T12:11:43;4.25;;;1.13;;
75932;SDS011;64803;52.356;5.310;2023-07-20T12:14:11;3.13;;;0.75;;
75932;SDS011;64803;52.356;5.310;2023-07-20T12:16:37;3.30;;;0.70;;
75932;SDS011;64803;52.356;5.310;2023-07-20T12:19:07;2.40;;;0.70;;
75932;SDS011;64803;52.356;5.310;2023-07-20T12:21:35;3.17;;;0.88;;
75932;SDS011;64803;52.356;5.310;2023-07-20T12:24:02;4.28;;;1.00;;
75932;SDS011;64803;52.356;5.310;2023-07-20T12:26:29;4.38;;;1.10;;
75932;SDS011;64803;52.356;5.310;2023-07-20T12:28:57;1.45;;;0.73;;
75932;SDS011;64803;52.356;5.310;2023-07-20T12:31:24;7.00;;;1.17;;
75932;SDS011;64803;52.356;5.310;2023-07-20T12:33:51;3.53;;;1.20;;
75932;SDS011;64803;52.356;5.310;2023-07-20T12:38:44;4.03;;;1.00;;
75932;SDS011;64803;52.356;5.310;2023-07-20T12:41:11;2.03;;;0.90;;
75932;SDS011;64803;52.356;5.310;2023-07-20T12:43:39;2.20;;;0.85;;
75932;SDS011;64803;52.356;5.310;2023-07-20T12:46:09;3.30;;;1.00;;
75932;SDS011;64803;52.356;5.310;2023-07-20T12:48:37;2.65;;;0.90;;
75932;SDS011;64803;52.356;5.310;2023-07-20T12:51:05;3.03;;;0.88;;
75932;SDS011;64803;52.356;5.310;2023-07-20T12:55:59;3.58;;;1.40;;
75932;SDS011;64803;52.356;5.310;2023-07-20T12:58:26;5.45;;;1.40;;
75932;SDS011;64803;52.356;5.310;2023-07-20T13:00:52;3.28;;;1.17;;
75932;SDS011;64803;52.356;5.310;2023-07-20T13:03:19;8.20;;;1.35;;
75932;SDS011;64803;52.356;5.310;2023-07-20T13:05:45;5.30;;;1.50;;
75932;SDS011;64803;52.356;5.310;2023-07-20T13:08:12;4.93;;;0.93;;
75932;SDS011;64803;52.356;5.310;2023-07-20T13:10:38;6.70;;;1.20;;
75932;SDS011;64803;52.356;5.310;2023-07-20T13:13:05;4.75;;;1.40;;
75932;SDS011;64803;52.356;5.310;2023-07-20T13:15:32;3.08;;;1.05;;
75932;SDS011;64803;52.356;5.310;2023-07-20T13:18:06;8.48;;;1.30;;
75932;SDS011;64803;52.356;5.310;2023-07-20T13:20:32;4.13;;;1.20;;
75932;SDS011;64803;52.356;5.310;2023-07-20T13:22:58;3.80;;;1.20;;
75932;SDS011;64803;52.356;5.310;2023-07-20T13:25:24;3.88;;;1.27;;
75932;SDS011;64803;52.356;5.310;2023-07-20T13:27:50;4.03;;;1.40;;
75932;SDS011;64803;52.356;5.310;2023-07-20T13:30:16;4.35;;;1.33;;
75932;SDS011;64803;52.356;5.310;2023-07-20T13:32:45;3.97;;;1.20;;
75932;SDS011;64803;52.356;5.310;2023-07-20T13:35:12;4.18;;;1.08;;
75932;SDS011;64803;52.356;5.310;2023-07-20T13:37:38;2.72;;;1.00;;
75932;SDS011;64803;52.356;5.310;2023-07-20T13:40:04;2.97;;;0.90;;
75932;SDS011;64803;52.356;5.310;2023-07-20T13:42:31;5.10;;;0.90;;
75932;SDS011;64803;52.356;5.310;2023-07-20T13:44:58;3.63;;;0.90;;
75932;SDS011;64803;52.356;5.310;2023-07-20T13:47:24;2.05;;;0.70;;
75932;SDS011;64803;52.356;5.310;2023-07-20T13:49:50;2.85;;;0.70;;
75932;SDS011;64803;52.356;5.310;2023-07-20T13:52:16;2.20;;;0.80;;
75932;SDS011;64803;52.356;5.310;2023-07-20T13:54:42;2.22;;;0.80;;
75932;SDS011;64803;52.356;5.310;2023-07-20T13:57:08;3.83;;;1.15;;
75932;SDS011;64803;52.356;5.310;2023-07-20T13:59:34;3.60;;;1.00;;
75932;SDS011;64803;52.356;5.310;2023-07-20T14:02:00;2.80;;;1.10;;
75932;SDS011;64803;52.356;5.310;2023-07-20T14:04:26;2.45;;;1.05;;
75932;SDS011;64803;52.356;5.310;2023-07-20T14:06:52;3.97;;;1.35;;
75932;SDS011;64803;52.356;5.310;2023-07-20T14:09:18;6.22;;;1.38;;
75932;SDS011;64803;52.356;5.310;2023-07-20T14:11:44;1.70;;;0.80;;
75932;SDS011;64803;52.356;5.310;2023-07-20T14:14:11;3.05;;;1.00;;
75932;SDS011;64803;52.356;5.310;2023-07-20T14:16:37;2.60;;;1.00;;
75932;SDS011;64803;52.356;5.310;2023-07-20T14:19:03;4.68;;;1.23;;
75932;SDS011;64803;52.356;5.310;2023-07-20T14:21:30;4.03;;;1.10;;
75932;SDS011;64803;52.356;5.310;2023-07-20T14:23:56;3.05;;;1.17;;
75932;SDS011;64803;52.356;5.310;2023-07-20T14:26:23;3.85;;;1.10;;
75932;SDS011;64803;52.356;5.310;2023-07-20T14:28:50;3.50;;;1.00;;
75932;SDS011;64803;52.356;5.310;2023-07-20T14:31:16;2.70;;;1.20;;
75932;SDS011;64803;52.356;5.310;2023-07-20T14:33:42;4.93;;;1.65;;
75932;SDS011;64803;52.356;5.310;2023-07-20T14:36:08;4.07;;;1.00;;
75932;SDS011;64803;52.356;5.310;2023-07-20T14:38:34;3.33;;;0.93;;
75932;SDS011;64803;52.356;5.310;2023-07-20T14:41:01;5.45;;;1.33;;
75932;SDS011;64803;52.356;5.310;2023-07-20T14:43:27;5.53;;;1.10;;
75932;SDS011;64803;52.356;5.310;2023-07-20T14:45:53;3.22;;;0.90;;
75932;SDS011;64803;52.356;5.310;2023-07-20T14:48:22;3.83;;;1.10;;
75932;SDS011;64803;52.356;5.310;2023-07-20T14:50:48;2.97;;;1.05;;
75932;SDS011;64803;52.356;5.310;2023-07-20T14:53:14;2.38;;;0.90;;
75932;SDS011;64803;52.356;5.310;2023-07-20T14:55:41;3.35;;;1.10;;
75932;SDS011;64803;52.356;5.310;2023-07-20T14:58:07;1.92;;;0.90;;
75932;SDS011;64803;52.356;5.310;2023-07-20T15:00:34;3.45;;;1.00;;
75932;SDS011;64803;52.356;5.310;2023-07-20T15:03:00;4.00;;;1.10;;
75932;SDS011;64803;52.356;5.310;2023-07-20T15:05:26;4.43;;;1.10;;
75932;SDS011;64803;52.356;5.310;2023-07-20T15:07:52;2.22;;;0.70;;
75932;SDS011;64803;52.356;5.310;2023-07-20T15:10:19;2.20;;;0.80;;
75932;SDS011;64803;52.356;5.310;2023-07-20T15:12:45;2.25;;;0.90;;
75932;SDS011;64803;52.356;5.310;2023-07-20T15:15:12;3.65;;;0.70;;
75932;SDS011;64803;52.356;5.310;2023-07-20T15:17:39;2.75;;;0.85;;
75932;SDS011;64803;52.356;5.310;2023-07-20T15:20:11;1.85;;;0.82;;
75932;SDS011;64803;52.356;5.310;2023-07-20T15:22:39;3.03;;;0.75;;
75932;SDS011;64803;52.356;5.310;2023-07-20T15:25:06;1.40;;;0.65;;